sensor_id;sensor_type;location;lat;lon;timestamp;temperature;humidity
35541;DHT22;21650;48.840;9.162;2023-12-04T00:00:26;-4.10;99.90
35541;DHT22;21650;48.840;9.162;2023-12-04T00:02:52;-4.20;99.90
35541;DHT22;21650;48.840;9.162;2023-12-04T00:05:17;-4.20;99.90
35541;DHT22;21650;48.840;9.162;2023-12-04T00:07:43;-4.30;99.90
35541;DHT22;21650;48.840;9.162;2023-12-04T00:10:09;-4.30;99.90
35541;DHT22;21650;48.840;9.162;2023-12-04T00:12:35;-4.20;99.90
35541;DHT22;21650;48.840;9.162;2023-12-04T00:15:00;-4.20;99.90
35541;DHT22;21650;48.840;9.162;2023-12-04T00:17:26;-4.20;99.90
35541;DHT22;21650;48.840;9.162;2023-12-04T00:19:51;-4.30;99.90
35541;DHT22;21650;48.840;9.162;2023-12-04T00:22:17;-4.30;99.90
35541;DHT22;21650;48.840;9.162;2023-12-04T00:24:42;-4.30;99.90
35541;DHT22;21650;48.840;9.162;2023-12-04T00:27:08;-4.30;99.90
35541;DHT22;21650;48.840;9.162;2023-12-04T00:29:34;-4.30;99.90
35541;DHT22;21650;48.840;9.162;2023-12-04T00:31:59;-4.30;99.90
35541;DHT22;21650;48.840;9.162;2023-12-04T00:34:25;-4.30;99.90
35541;DHT22;21650;48.840;9.162;2023-12-04T00:36:50;-4.20;99.90
35541;DHT22;21650;48.840;9.162;2023-12-04T00:39:16;-4.30;99.90
35541;DHT22;21650;48.840;9.162;2023-12-04T00:41:42;-4.30;99.90
35541;DHT22;21650;48.840;9.162;2023-12-04T00:44:08;-4.30;99.90
35541;DHT22;21650;48.840;9.162;2023-12-04T00:46:33;-4.30;99.90
35541;DHT22;21650;48.840;9.162;2023-12-04T00:48:59;-4.30;99.90
35541;DHT22;21650;48.840;9.162;2023-12-04T00:51:24;-4.30;99.90
35541;DHT22;21650;48.840;9.162;2023-12-04T00:53:51;-4.30;99.90
35541;DHT22;21650;48.840;9.162;2023-12-04T00:56:17;-4.30;99.90
35541;DHT22;21650;48.840;9.162;2023-12-04T00:58:45;-4.20;99.90
35541;DHT22;21650;48.840;9.162;2023-12-04T01:01:10;-4.20;99.90
35541;DHT22;21650;48.840;9.162;2023-12-04T01:03:37;-4.20;99.90
35541;DHT22;21650;48.840;9.162;2023-12-04T01:06:03;-4.10;99.90
35541;DHT22;21650;48.840;9.162;2023-12-04T01:08:29;-4.00;99.90
35541;DHT22;21650;48.840;9.162;2023-12-04T01:10:54;-4.10;99.90
35541;DHT22;21650;48.840;9.162;2023-12-04T01:13:20;-4.00;99.90
35541;DHT22;21650;48.840;9.162;2023-12-04T01:15:45;-4.00;99.90
35541;DHT22;21650;48.840;9.162;2023-12-04T01:18:13;-4.00;99.90
35541;DHT22;21650;48.840;9.162;2023-12-04T01:20:39;-3.90;99.90
35541;DHT22;21650;48.840;9.162;2023-12-04T01:23:05;-3.90;99.90
35541;DHT22;21650;48.840;9.162;2023-12-04T01:25:30;-3.90;99.90
35541;DHT22;21650;48.840;9.162;2023-12-04T01:27:56;-3.90;99.90
35541;DHT22;21650;48.840;9.162;2023-12-04T01:30:22;-3.80;99.90
35541;DHT22;21650;48.840;9.162;2023-12-04T01:32:47;-3.80;99.90
35541;DHT22;21650;48.840;9.162;2023-12-04T01:35:13;-3.80;99.90
35541;DHT22;21650;48.840;9.162;2023-12-04T01:37:38;-3.80;99.90
35541;DHT22;21650;48.840;9.162;2023-12-04T01:40:05;-3.80;99.90
35541;DHT22;21650;48.840;9.162;2023-12-04T01:42:32;-3.90;99.90
35541;DHT22;21650;48.840;9.162;2023-12-04T01:44:58;-3.90;99.90
35541;DHT22;21650;48.840;9.162;2023-12-04T01:47:23;-3.90;99.90
35541;DHT22;21650;48.840;9.162;2023-12-04T01:49:49;-3.90;99.90
35541;DHT22;21650;48.840;9.162;2023-12-04T01:52:15;-4.00;99.90
35541;DHT22;21650;48.840;9.162;2023-12-04T01:54:41;-4.00;99.90
35541;DHT22;21650;48.840;9.162;2023-12-04T01:57:08;-4.10;99.90
35541;DHT22;21650;48.840;9.162;2023-12-04T01:59:34;-4.20;99.90
35541;DHT22;21650;48.840;9.162;2023-12-04T02:02:00;-4.10;99.90
35541;DHT22;21650;48.840;9.162;2023-12-04T02:04:26;-4.20;99.90
35541;DHT22;21650;48.840;9.162;2023-12-04T02:06:52;-4.10;99.90
35541;DHT22;21650;48.840;9.162;2023-12-04T02:09:17;-4.20;99.90
35541;DHT22;21650;48.840;9.162;2023-12-04T02:11:43;-4.20;99.90
35541;DHT22;21650;48.840;9.162;2023-12-04T02:14:09;-4.20;99.90
35541;DHT22;21650;48.840;9.162;2023-12-04T02:16:39;-4.20;99.90
35541;DHT22;21650;48.840;9.162;2023-12-04T02:19:07;-4.20;99.90
35541;DHT22;21650;48.840;9.162;2023-12-04T02:21:34;-4.20;99.90
35541;DHT22;21650;48.840;9.162;2023-12-04T02:24:00;-4.30;99.90
35541;DHT22;21650;48.840;9.162;2023-12-04T02:26:31;-4.30;99.90
35541;DHT22;21650;48.840;9.162;2023-12-04T02:29:05;-4.30;99.90
35541;DHT22;21650;48.840;9.162;2023-12-04T02:31:34;-4.30;99.90
35541;DHT22;21650;48.840;9.162;2023-12-04T02:34:01;-4.30;99.90
35541;DHT22;21650;48.840;9.162;2023-12-04T02:36:29;-4.10;99.90
35541;DHT22;21650;48.840;9.162;2023-12-04T02:38:56;-4.10;99.90
35541;DHT22;21650;48.840;9.162;2023-12-04T02:41:21;-4.20;99.90
35541;DHT22;21650;48.840;9.162;2023-12-04T02:43:47;-4.30;99.90
35541;DHT22;21650;48.840;9.162;2023-12-04T02:46:13;-4.30;99.90
35541;DHT22;21650;48.840;9.162;2023-12-04T02:48:38;-4.30;99.90
35541;DHT22;21650;48.840;9.162;2023-12-04T02:51:05;-4.40;99.90
35541;DHT22;21650;48.840;9.162;2023-12-04T02:53:30;-4.40;99.90
35541;DHT22;21650;48.840;9.162;2023-12-04T02:55:56;-4.30;99.90
35541;DHT22;21650;48.840;9.162;2023-12-04T02:58:21;-4.40;99.90
35541;DHT22;21650;48.840;9.162;2023-12-04T03:00:47;-4.30;99.90
35541;DHT22;21650;48.840;9.162;2023-12-04T03:03:13;-4.30;99.90
35541;DHT22;21650;48.840;9.162;2023-12-04T03:05:38;-4.40;99.90
35541;DHT22;21650;48.840;9.162;2023-12-04T03:08:04;-4.20;99.90
35541;DHT22;21650;48.840;9.162;2023-12-04T03:10:29;-4.20;99.90
35541;DHT22;21650;48.840;9.162;2023-12-04T03:12:55;-4.20;99.90
35541;DHT22;21650;48.840;9.162;2023-12-04T03:15:20;-4.30;99.90
35541;DHT22;21650;48.840;9.162;2023-12-04T03:17:46;-4.20;99.90
35541;DHT22;21650;48.840;9.162;2023-12-04T03:20:12;-4.30;99.90
35541;DHT22;21650;48.840;9.162;2023-12-04T03:22:37;-4.20;99.90
35541;DHT22;21650;48.840;9.162;2023-12-04T03:25:03;-4.20;99.90
35541;DHT22;21650;48.840;9.162;2023-12-04T03:27:29;-4.30;99.90
35541;DHT22;21650;48.840;9.162;2023-12-04T03:29:55;-4.30;99.90
35541;DHT22;21650;48.840;9.162;2023-12-04T03:32:20;-4.20;99.90
35541;DHT22;21650;48.840;9.162;2023-12-04T03:34:46;-4.30;99.90
35541;DHT22;21650;48.840;9.162;2023-12-04T03:37:11;-4.30;99.90
35541;DHT22;21650;48.840;9.162;2023-12-04T03:39:37;-4.30;99.90
35541;DHT22;21650;48.840;9.162;2023-12-04T03:42:03;-4.30;99.90
35541;DHT22;21650;48.840;9.162;2023-12-04T03:44:28;-4.20;99.90
35541;DHT22;21650;48.840;9.162;2023-12-04T03:46:54;-4.30;99.90
35541;DHT22;21650;48.840;9.162;2023-12-04T03:49:20;-4.30;99.90
35541;DHT22;21650;48.840;9.162;2023-12-04T03:51:45;-4.20;99.90
35541;DHT22;21650;48.840;9.162;2023-12-04T03:54:11;-4.20;99.90
35541;DHT22;21650;48.840;9.162;2023-12-04T03:56:38;-4.20;99.90
35541;DHT22;21650;48.840;9.162;2023-12-04T03:59:03;-4.20;99.90
35541;DHT22;21650;48.840;9.162;2023-12-04T04:01:29;-4.20;99.90
35541;DHT22;21650;48.840;9.162;2023-12-04T04:03:54;-4.20;99.90
35541;DHT22;21650;48.840;9.162;2023-12-04T04:06:20;-4.20;99.90
35541;DHT22;21650;48.840;9.162;2023-12-04T04:08:45;-4.20;99.90
35541;DHT22;21650;48.840;9.162;2023-12-04T04:11:11;-4.00;99.90
35541;DHT22;21650;48.840;9.162;2023-12-04T04:13:37;-4.00;99.90
35541;DHT22;21650;48.840;9.162;2023-12-04T04:16:03;-4.00;99.90
35541;DHT22;21650;48.840;9.162;2023-12-04T04:18:29;-3.90;99.90
35541;DHT22;21650;48.840;9.162;2023-12-04T04:20:54;-3.90;99.90
35541;DHT22;21650;48.840;9.162;2023-12-04T04:23:20;-3.90;99.90
35541;DHT22;21650;48.840;9.162;2023-12-04T04:25:45;-4.00;99.90
35541;DHT22;21650;48.840;9.162;2023-12-04T04:28:11;-3.90;99.90
35541;DHT22;21650;48.840;9.162;2023-12-04T04:30:36;-3.90;99.90
35541;DHT22;21650;48.840;9.162;2023-12-04T04:33:02;-3.90;99.90
35541;DHT22;21650;48.840;9.162;2023-12-04T04:35:29;-3.90;99.90
35541;DHT22;21650;48.840;9.162;2023-12-04T04:37:55;-3.90;99.90
35541;DHT22;21650;48.840;9.162;2023-12-04T04:40:21;-3.90;99.90
35541;DHT22;21650;48.840;9.162;2023-12-04T04:42:46;-3.90;99.90
35541;DHT22;21650;48.840;9.162;2023-12-04T04:45:12;-3.90;99.90
35541;DHT22;21650;48.840;9.162;2023-12-04T04:47:37;-3.90;99.90
35541;DHT22;21650;48.840;9.162;2023-12-04T04:50:03;-3.90;99.90
35541;DHT22;21650;48.840;9.162;2023-12-04T04:52:29;-3.90;99.90
35541;DHT22;21650;48.840;9.162;2023-12-04T04:54:54;-3.80;99.90
35541;DHT22;21650;48.840;9.162;2023-12-04T04:57:20;-3.80;99.90
35541;DHT22;21650;48.840;9.162;2023-12-04T04:59:45;-3.80;99.90
35541;DHT22;21650;48.840;9.162;2023-12-04T05:02:11;-3.70;99.90
35541;DHT22;21650;48.840;9.162;2023-12-04T05:04:37;-3.70;99.90
35541;DHT22;21650;48.840;9.162;2023-12-04T05:07:02;-3.70;99.90
35541;DHT22;21650;48.840;9.162;2023-12-04T05:09:28;-3.70;99.90
35541;DHT22;21650;48.840;9.162;2023-12-04T05:11:53;-3.60;99.90
35541;DHT22;21650;48.840;9.162;2023-12-04T05:14:19;-3.60;99.90
35541;DHT22;21650;48.840;9.162;2023-12-04T05:16:44;-3.70;99.90
35541;DHT22;21650;48.840;9.162;2023-12-04T05:19:10;-3.70;99.90
35541;DHT22;21650;48.840;9.162;2023-12-04T05:21:35;-3.70;99.90
35541;DHT22;21650;48.840;9.162;2023-12-04T05:24:01;-3.70;99.90
35541;DHT22;21650;48.840;9.162;2023-12-04T05:26:27;-3.70;99.90
35541;DHT22;21650;48.840;9.162;2023-12-04T05:28:52;-3.70;99.90
35541;DHT22;21650;48.840;9.162;2023-12-04T05:31:18;-3.70;99.90
35541;DHT22;21650;48.840;9.162;2023-12-04T05:33:43;-3.70;99.90
35541;DHT22;21650;48.840;9.162;2023-12-04T05:36:09;-3.70;99.90
35541;DHT22;21650;48.840;9.162;2023-12-04T05:38:35;-3.60;99.90
35541;DHT22;21650;48.840;9.162;2023-12-04T05:41:00;-3.60;99.90
35541;DHT22;21650;48.840;9.162;2023-12-04T05:43:26;-3.60;99.90
35541;DHT22;21650;48.840;9.162;2023-12-04T05:45:51;-3.70;99.90
35541;DHT22;21650;48.840;9.162;2023-12-04T05:48:18;-3.60;99.90
35541;DHT22;21650;48.840;9.162;2023-12-04T05:50:43;-3.60;99.90
35541;DHT22;21650;48.840;9.162;2023-12-04T05:53:09;-3.60;99.90
35541;DHT22;21650;48.840;9.162;2023-12-04T05:55:34;-3.60;99.90
35541;DHT22;21650;48.840;9.162;2023-12-04T05:58:00;-3.60;99.90
35541;DHT22;21650;48.840;9.162;2023-12-04T06:00:26;-3.70;99.90
35541;DHT22;21650;48.840;9.162;2023-12-04T06:02:52;-3.70;99.90
35541;DHT22;21650;48.840;9.162;2023-12-04T06:05:17;-3.70;99.90
35541;DHT22;21650;48.840;9.162;2023-12-04T06:07:43;-3.70;99.90
35541;DHT22;21650;48.840;9.162;2023-12-04T06:10:09;-3.70;99.90
35541;DHT22;21650;48.840;9.162;2023-12-04T06:12:35;-3.70;99.90
35541;DHT22;21650;48.840;9.162;2023-12-04T06:15:00;-3.70;99.90
35541;DHT22;21650;48.840;9.162;2023-12-04T06:17:26;-3.70;99.90
35541;DHT22;21650;48.840;9.162;2023-12-04T06:19:53;-3.70;99.90
35541;DHT22;21650;48.840;9.162;2023-12-04T06:22:19;-3.70;99.90
35541;DHT22;21650;48.840;9.162;2023-12-04T06:24:47;-3.70;99.90
35541;DHT22;21650;48.840;9.162;2023-12-04T06:27:18;-3.70;99.90
35541;DHT22;21650;48.840;9.162;2023-12-04T06:29:46;-3.70;99.90
35541;DHT22;21650;48.840;9.162;2023-12-04T06:32:12;-3.70;99.90
35541;DHT22;21650;48.840;9.162;2023-12-04T06:34:39;-3.80;99.90
35541;DHT22;21650;48.840;9.162;2023-12-04T06:37:09;-3.70;99.90
35541;DHT22;21650;48.840;9.162;2023-12-04T06:39:37;-3.70;99.90
35541;DHT22;21650;48.840;9.162;2023-12-04T06:42:04;-3.70;99.90
35541;DHT22;21650;48.840;9.162;2023-12-04T06:44:30;-3.80;99.90
35541;DHT22;21650;48.840;9.162;2023-12-04T06:46:57;-3.80;99.90
35541;DHT22;21650;48.840;9.162;2023-12-04T06:49:25;-3.80;99.90
35541;DHT22;21650;48.840;9.162;2023-12-04T06:51:52;-3.70;99.90
35541;DHT22;21650;48.840;9.162;2023-12-04T06:54:18;-3.80;99.90
35541;DHT22;21650;48.840;9.162;2023-12-04T06:56:44;-3.80;99.90
35541;DHT22;21650;48.840;9.162;2023-12-04T06:59:10;-3.80;99.90
35541;DHT22;21650;48.840;9.162;2023-12-04T07:01:35;-3.80;99.90
35541;DHT22;21650;48.840;9.162;2023-12-04T07:04:01;-3.80;99.90
35541;DHT22;21650;48.840;9.162;2023-12-04T07:06:26;-3.80;99.90
35541;DHT22;21650;48.840;9.162;2023-12-04T07:08:52;-3.70;99.90
35541;DHT22;21650;48.840;9.162;2023-12-04T07:11:18;-3.60;99.90
35541;DHT22;21650;48.840;9.162;2023-12-04T07:13:43;-3.60;99.90
35541;DHT22;21650;48.840;9.162;2023-12-04T07:16:09;-3.60;99.90
35541;DHT22;21650;48.840;9.162;2023-12-04T07:18:34;-3.60;99.90
35541;DHT22;21650;48.840;9.162;2023-12-04T07:21:00;-3.60;99.90
35541;DHT22;21650;48.840;9.162;2023-12-04T07:23:26;-3.50;99.90
35541;DHT22;21650;48.840;9.162;2023-12-04T07:25:51;-3.50;99.90
35541;DHT22;21650;48.840;9.162;2023-12-04T07:28:18;-3.40;99.90
35541;DHT22;21650;48.840;9.162;2023-12-04T07:30:43;-3.40;99.90
35541;DHT22;21650;48.840;9.162;2023-12-04T07:33:09;-3.40;99.90
35541;DHT22;21650;48.840;9.162;2023-12-04T07:35:34;-3.40;99.90
35541;DHT22;21650;48.840;9.162;2023-12-04T07:38:00;-3.40;99.90
35541;DHT22;21650;48.840;9.162;2023-12-04T07:40:26;-3.30;99.90
35541;DHT22;21650;48.840;9.162;2023-12-04T07:42:51;-3.30;99.90
35541;DHT22;21650;48.840;9.162;2023-12-04T07:45:17;-3.30;99.90
35541;DHT22;21650;48.840;9.162;2023-12-04T07:47:42;-3.30;99.90
35541;DHT22;21650;48.840;9.162;2023-12-04T07:50:08;-3.20;99.90
35541;DHT22;21650;48.840;9.162;2023-12-04T07:52:34;-3.20;99.90
35541;DHT22;21650;48.840;9.162;2023-12-04T07:54:59;-3.10;99.90
35541;DHT22;21650;48.840;9.162;2023-12-04T07:57:25;-3.10;99.90
35541;DHT22;21650;48.840;9.162;2023-12-04T07:59:51;-3.10;99.90
35541;DHT22;21650;48.840;9.162;2023-12-04T08:02:16;-3.10;99.90
35541;DHT22;21650;48.840;9.162;2023-12-04T08:04:42;-3.00;99.90
35541;DHT22;21650;48.840;9.162;2023-12-04T08:07:07;-3.00;99.90
35541;DHT22;21650;48.840;9.162;2023-12-04T08:09:33;-3.00;99.90
35541;DHT22;21650;48.840;9.162;2023-12-04T08:11:59;-2.80;99.90
35541;DHT22;21650;48.840;9.162;2023-12-04T08:14:24;-2.80;99.90
35541;DHT22;21650;48.840;9.162;2023-12-04T08:16:50;-2.80;99.90
35541;DHT22;21650;48.840;9.162;2023-12-04T08:19:16;-2.70;99.90
35541;DHT22;21650;48.840;9.162;2023-12-04T08:21:41;-2.70;99.90
35541;DHT22;21650;48.840;9.162;2023-12-04T08:24:07;-2.70;99.90
35541;DHT22;21650;48.840;9.162;2023-12-04T08:26:32;-2.70;99.90
35541;DHT22;21650;48.840;9.162;2023-12-04T08:28:59;-2.60;99.90
35541;DHT22;21650;48.840;9.162;2023-12-04T08:31:24;-2.60;99.90
35541;DHT22;21650;48.840;9.162;2023-12-04T08:33:50;-2.50;99.90
35541;DHT22;21650;48.840;9.162;2023-12-04T08:36:15;-2.50;99.90
35541;DHT22;21650;48.840;9.162;2023-12-04T08:38:41;-2.50;99.90
35541;DHT22;21650;48.840;9.162;2023-12-04T08:41:07;-2.40;99.90
35541;DHT22;21650;48.840;9.162;2023-12-04T08:43:32;-2.50;99.90
35541;DHT22;21650;48.840;9.162;2023-12-04T08:45:58;-2.50;99.90
35541;DHT22;21650;48.840;9.162;2023-12-04T08:48:25;-2.40;99.90
35541;DHT22;21650;48.840;9.162;2023-12-04T08:50:51;-2.40;99.90
35541;DHT22;21650;48.840;9.162;2023-12-04T08:53:16;-2.40;99.90
35541;DHT22;21650;48.840;9.162;2023-12-04T08:55:42;-2.40;99.90
35541;DHT22;21650;48.840;9.162;2023-12-04T08:58:07;-2.30;99.90
35541;DHT22;21650;48.840;9.162;2023-12-04T09:00:33;-2.20;99.90
35541;DHT22;21650;48.840;9.162;2023-12-04T09:03:01;-2.20;99.90
35541;DHT22;21650;48.840;9.162;2023-12-04T09:05:27;-2.20;99.90
35541;DHT22;21650;48.840;9.162;2023-12-04T09:07:53;-2.20;99.90
35541;DHT22;21650;48.840;9.162;2023-12-04T09:10:18;-2.10;99.90
35541;DHT22;21650;48.840;9.162;2023-12-04T09:12:44;-2.10;99.90
35541;DHT22;21650;48.840;9.162;2023-12-04T09:15:11;-2.10;99.90
35541;DHT22;21650;48.840;9.162;2023-12-04T09:17:37;-2.10;99.90
35541;DHT22;21650;48.840;9.162;2023-12-04T09:20:03;-2.00;99.90
35541;DHT22;21650;48.840;9.162;2023-12-04T09:22:31;-2.10;99.90
35541;DHT22;21650;48.840;9.162;2023-12-04T09:24:56;-2.10;99.90
35541;DHT22;21650;48.840;9.162;2023-12-04T09:27:23;-2.00;99.90
35541;DHT22;21650;48.840;9.162;2023-12-04T09:29:48;-2.00;99.90
35541;DHT22;21650;48.840;9.162;2023-12-04T09:32:14;-2.00;99.90
35541;DHT22;21650;48.840;9.162;2023-12-04T09:34:39;-1.90;99.90
35541;DHT22;21650;48.840;9.162;2023-12-04T09:37:05;-1.90;99.90
35541;DHT22;21650;48.840;9.162;2023-12-04T09:39:31;-1.90;99.90
35541;DHT22;21650;48.840;9.162;2023-12-04T09:41:57;-1.80;99.90
35541;DHT22;21650;48.840;9.162;2023-12-04T09:44:24;-1.80;99.90
35541;DHT22;21650;48.840;9.162;2023-12-04T09:46:52;-1.80;99.90
35541;DHT22;21650;48.840;9.162;2023-12-04T09:49:18;-1.80;99.90
35541;DHT22;21650;48.840;9.162;2023-12-04T09:51:46;-1.70;99.90
35541;DHT22;21650;48.840;9.162;2023-12-04T09:54:12;-1.70;99.90
35541;DHT22;21650;48.840;9.162;2023-12-04T09:56:38;-1.70;99.90
35541;DHT22;21650;48.840;9.162;2023-12-04T09:59:06;-1.70;99.90
35541;DHT22;21650;48.840;9.162;2023-12-04T10:01:33;-1.70;99.90
35541;DHT22;21650;48.840;9.162;2023-12-04T10:04:00;-1.70;99.90
35541;DHT22;21650;48.840;9.162;2023-12-04T10:06:27;-1.70;99.90
35541;DHT22;21650;48.840;9.162;2023-12-04T10:08:55;-1.60;99.90
35541;DHT22;21650;48.840;9.162;2023-12-04T10:11:23;-1.60;99.90
35541;DHT22;21650;48.840;9.162;2023-12-04T10:13:50;-1.60;99.90
35541;DHT22;21650;48.840;9.162;2023-12-04T10:16:31;-1.60;99.90
35541;DHT22;21650;48.840;9.162;2023-12-04T10:18:57;-1.50;99.90
35541;DHT22;21650;48.840;9.162;2023-12-04T10:21:22;-1.50;99.90
35541;DHT22;21650;48.840;9.162;2023-12-04T10:23:48;-1.40;99.90
35541;DHT22;21650;48.840;9.162;2023-12-04T10:26:17;-1.40;99.90
35541;DHT22;21650;48.840;9.162;2023-12-04T10:29:01;-1.40;99.90
35541;DHT22;21650;48.840;9.162;2023-12-04T10:31:34;-1.30;99.90
35541;DHT22;21650;48.840;9.162;2023-12-04T10:34:02;-1.20;99.90
35541;DHT22;21650;48.840;9.162;2023-12-04T10:36:28;-1.20;99.90
35541;DHT22;21650;48.840;9.162;2023-12-04T10:39:00;-1.20;99.90
35541;DHT22;21650;48.840;9.162;2023-12-04T10:41:26;-1.10;99.90
35541;DHT22;21650;48.840;9.162;2023-12-04T10:43:51;-1.10;99.90
35541;DHT22;21650;48.840;9.162;2023-12-04T10:46:18;-1.10;99.90
35541;DHT22;21650;48.840;9.162;2023-12-04T10:48:47;-1.10;99.90
35541;DHT22;21650;48.840;9.162;2023-12-04T10:51:15;-1.10;99.90
35541;DHT22;21650;48.840;9.162;2023-12-04T10:53:43;-1.00;99.90
35541;DHT22;21650;48.840;9.162;2023-12-04T10:56:10;-1.00;99.90
35541;DHT22;21650;48.840;9.162;2023-12-04T10:58:39;-1.00;99.90
35541;DHT22;21650;48.840;9.162;2023-12-04T11:01:06;-0.90;99.90
35541;DHT22;21650;48.840;9.162;2023-12-04T11:03:44;-1.00;99.90
35541;DHT22;21650;48.840;9.162;2023-12-04T11:06:12;-0.90;99.90
35541;DHT22;21650;48.840;9.162;2023-12-04T11:08:39;-0.90;99.90
35541;DHT22;21650;48.840;9.162;2023-12-04T11:11:12;-0.80;99.90
35541;DHT22;21650;48.840;9.162;2023-12-04T11:13:44;-0.80;99.90
35541;DHT22;21650;48.840;9.162;2023-12-04T11:16:29;-0.70;99.90
35541;DHT22;21650;48.840;9.162;2023-12-04T11:21:47;-0.70;99.90
35541;DHT22;21650;48.840;9.162;2023-12-04T11:24:15;-0.70;99.90
35541;DHT22;21650;48.840;9.162;2023-12-04T11:26:41;-0.60;99.90
35541;DHT22;21650;48.840;9.162;2023-12-04T11:29:09;-0.60;99.90
35541;DHT22;21650;48.840;9.162;2023-12-04T11:31:37;-0.60;99.90
35541;DHT22;21650;48.840;9.162;2023-12-04T11:34:03;-0.60;99.90
35541;DHT22;21650;48.840;9.162;2023-12-04T11:36:29;-0.60;99.90
35541;DHT22;21650;48.840;9.162;2023-12-04T11:38:55;-0.60;99.90
35541;DHT22;21650;48.840;9.162;2023-12-04T11:41:25;-0.60;99.90
35541;DHT22;21650;48.840;9.162;2023-12-04T11:43:52;-0.60;99.90
35541;DHT22;21650;48.840;9.162;2023-12-04T11:46:22;-0.60;99.90
35541;DHT22;21650;48.840;9.162;2023-12-04T11:48:49;-0.60;99.90
35541;DHT22;21650;48.840;9.162;2023-12-04T11:54:07;-0.50;99.90
35541;DHT22;21650;48.840;9.162;2023-12-04T11:56:32;-0.40;99.90
35541;DHT22;21650;48.840;9.162;2023-12-04T11:59:05;-0.40;99.90
35541;DHT22;21650;48.840;9.162;2023-12-04T12:01:36;-0.50;99.90
35541;DHT22;21650;48.840;9.162;2023-12-04T12:04:05;-0.50;99.90
35541;DHT22;21650;48.840;9.162;2023-12-04T12:06:31;-0.50;99.90
35541;DHT22;21650;48.840;9.162;2023-12-04T12:08:56;-0.50;99.90
35541;DHT22;21650;48.840;9.162;2023-12-04T12:11:23;-0.50;99.90
35541;DHT22;21650;48.840;9.162;2023-12-04T12:13:49;-0.50;99.90
35541;DHT22;21650;48.840;9.162;2023-12-04T12:16:14;-0.50;99.90
35541;DHT22;21650;48.840;9.162;2023-12-04T12:18:41;-0.50;99.90
35541;DHT22;21650;48.840;9.162;2023-12-04T12:21:07;-0.60;99.90
35541;DHT22;21650;48.840;9.162;2023-12-04T12:23:33;-0.60;99.90
35541;DHT22;21650;48.840;9.162;2023-12-04T12:25:59;-0.60;99.90
35541;DHT22;21650;48.840;9.162;2023-12-04T12:28:25;-0.60;99.90
35541;DHT22;21650;48.840;9.162;2023-12-04T12:30:51;-0.50;99.90
35541;DHT22;21650;48.840;9.162;2023-12-04T12:33:19;-0.50;99.90
35541;DHT22;21650;48.840;9.162;2023-12-04T12:35:46;-0.40;99.90
35541;DHT22;21650;48.840;9.162;2023-12-04T12:38:11;-0.40;99.90
35541;DHT22;21650;48.840;9.162;2023-12-04T12:40:37;-0.40;99.90
35541;DHT22;21650;48.840;9.162;2023-12-04T12:43:07;-0.40;99.90
35541;DHT22;21650;48.840;9.162;2023-12-04T12:45:43;-0.30;99.90
35541;DHT22;21650;48.840;9.162;2023-12-04T12:48:16;-0.30;99.90
35541;DHT22;21650;48.840;9.162;2023-12-04T12:50:46;-0.30;99.90
35541;DHT22;21650;48.840;9.162;2023-12-04T12:53:13;-0.30;99.90
35541;DHT22;21650;48.840;9.162;2023-12-04T12:55:42;-0.30;99.90
35541;DHT22;21650;48.840;9.162;2023-12-04T12:58:12;-0.30;99.90
35541;DHT22;21650;48.840;9.162;2023-12-04T13:00:43;-0.20;99.90
35541;DHT22;21650;48.840;9.162;2023-12-04T13:03:18;-0.20;99.90
35541;DHT22;21650;48.840;9.162;2023-12-04T13:05:44;-0.10;99.90
35541;DHT22;21650;48.840;9.162;2023-12-04T13:08:10;-0.10;99.90
35541;DHT22;21650;48.840;9.162;2023-12-04T13:10:40;-0.10;99.90
35541;DHT22;21650;48.840;9.162;2023-12-04T13:13:13;-0.10;99.90
35541;DHT22;21650;48.840;9.162;2023-12-04T13:15:40;-0.10;99.90
35541;DHT22;21650;48.840;9.162;2023-12-04T13:18:06;-0.10;99.90
35541;DHT22;21650;48.840;9.162;2023-12-04T13:20:32;-0.10;99.90
35541;DHT22;21650;48.840;9.162;2023-12-04T13:22:59;-0.20;99.90
35541;DHT22;21650;48.840;9.162;2023-12-04T13:25:24;-0.10;99.90
35541;DHT22;21650;48.840;9.162;2023-12-04T13:27:50;-0.20;99.90
35541;DHT22;21650;48.840;9.162;2023-12-04T13:30:16;-0.20;99.90
35541;DHT22;21650;48.840;9.162;2023-12-04T13:32:43;-0.10;99.90
35541;DHT22;21650;48.840;9.162;2023-12-04T13:35:09;-0.10;99.90
35541;DHT22;21650;48.840;9.162;2023-12-04T13:37:35;-0.10;99.90
35541;DHT22;21650;48.840;9.162;2023-12-04T13:40:02;-0.10;99.90
35541;DHT22;21650;48.840;9.162;2023-12-04T13:42:32;-0.10;99.90
35541;DHT22;21650;48.840;9.162;2023-12-04T13:45:21;-0.20;99.90
35541;DHT22;21650;48.840;9.162;2023-12-04T13:47:47;-0.20;99.90
35541;DHT22;21650;48.840;9.162;2023-12-04T13:50:13;-0.20;99.90
35541;DHT22;21650;48.840;9.162;2023-12-04T13:52:39;-0.20;99.90
35541;DHT22;21650;48.840;9.162;2023-12-04T13:55:05;-0.20;99.90
35541;DHT22;21650;48.840;9.162;2023-12-04T13:57:42;-0.20;99.90
35541;DHT22;21650;48.840;9.162;2023-12-04T14:00:26;-0.20;99.90
35541;DHT22;21650;48.840;9.162;2023-12-04T14:02:52;-0.20;99.90
35541;DHT22;21650;48.840;9.162;2023-12-04T14:05:30;-0.20;99.90
35541;DHT22;21650;48.840;9.162;2023-12-04T14:07:56;-0.30;99.90
35541;DHT22;21650;48.840;9.162;2023-12-04T14:10:24;-0.30;99.90
35541;DHT22;21650;48.840;9.162;2023-12-04T14:12:51;-0.20;99.90
35541;DHT22;21650;48.840;9.162;2023-12-04T14:15:17;-0.30;99.90
35541;DHT22;21650;48.840;9.162;2023-12-04T14:17:42;-0.30;99.90
35541;DHT22;21650;48.840;9.162;2023-12-04T14:20:08;-0.30;99.90
35541;DHT22;21650;48.840;9.162;2023-12-04T14:22:41;-0.30;99.90
35541;DHT22;21650;48.840;9.162;2023-12-04T14:25:07;-0.30;99.90
35541;DHT22;21650;48.840;9.162;2023-12-04T14:27:33;-0.30;99.90
35541;DHT22;21650;48.840;9.162;2023-12-04T14:29:59;-0.30;99.90
35541;DHT22;21650;48.840;9.162;2023-12-04T14:32:24;-0.30;99.90
35541;DHT22;21650;48.840;9.162;2023-12-04T14:34:50;-0.30;99.90
35541;DHT22;21650;48.840;9.162;2023-12-04T14:37:16;-0.30;99.90
35541;DHT22;21650;48.840;9.162;2023-12-04T14:39:42;-0.30;99.90
35541;DHT22;21650;48.840;9.162;2023-12-04T14:42:07;-0.30;99.90
35541;DHT22;21650;48.840;9.162;2023-12-04T14:44:33;-0.30;99.90
35541;DHT22;21650;48.840;9.162;2023-12-04T14:46:59;-0.30;99.90
35541;DHT22;21650;48.840;9.162;2023-12-04T14:49:25;-0.30;99.90
35541;DHT22;21650;48.840;9.162;2023-12-04T14:51:50;-0.30;99.90
35541;DHT22;21650;48.840;9.162;2023-12-04T14:54:16;-0.30;99.90
35541;DHT22;21650;48.840;9.162;2023-12-04T14:56:57;-0.30;99.90
35541;DHT22;21650;48.840;9.162;2023-12-04T14:59:41;-0.30;99.90
35541;DHT22;21650;48.840;9.162;2023-12-04T15:02:25;-0.30;99.90
35541;DHT22;21650;48.840;9.162;2023-12-04T15:05:09;-0.30;99.90
35541;DHT22;21650;48.840;9.162;2023-12-04T15:07:35;-0.30;99.90
35541;DHT22;21650;48.840;9.162;2023-12-04T15:10:00;-0.30;99.90
35541;DHT22;21650;48.840;9.162;2023-12-04T15:12:44;-0.30;99.90
35541;DHT22;21650;48.840;9.162;2023-12-04T15:15:33;-0.20;99.90
35541;DHT22;21650;48.840;9.162;2023-12-04T15:18:17;-0.20;99.90
35541;DHT22;21650;48.840;9.162;2023-12-04T15:21:01;-0.20;99.90
35541;DHT22;21650;48.840;9.162;2023-12-04T15:23:27;-0.20;99.90
35541;DHT22;21650;48.840;9.162;2023-12-04T15:25:52;-0.20;99.90
35541;DHT22;21650;48.840;9.162;2023-12-04T15:28:18;-0.20;99.90
35541;DHT22;21650;48.840;9.162;2023-12-04T15:30:44;-0.20;99.90
35541;DHT22;21650;48.840;9.162;2023-12-04T15:33:12;-0.20;99.90